createdAt,value
2022-09-21T00:01:12.750Z,22.45
2022-09-21T00:03:43.286Z,22.51
2022-09-21T00:06:16.225Z,22.35
2022-09-21T00:08:43.440Z,22.31
2022-09-21T00:11:14.923Z,22.34
2022-09-21T00:13:42.253Z,22.29
2022-09-21T00:16:09.587Z,22.32
2022-09-21T00:18:36.886Z,22.30
2022-09-21T00:21:12.028Z,22.30
2022-09-21T00:23:39.332Z,22.29
2022-09-21T00:26:09.831Z,22.21
2022-09-21T00:28:36.515Z,22.12
2022-09-21T00:31:05.119Z,22.17
2022-09-21T00:33:32.180Z,22.09
2022-09-21T00:36:04.510Z,22.20
2022-09-21T00:38:31.453Z,22.21
2022-09-21T00:40:58.507Z,22.28
2022-09-21T00:43:25.174Z,22.26
2022-09-21T00:46:01.671Z,22.23
2022-09-21T00:48:29.671Z,22.11
2022-09-21T00:50:58.676Z,22.19
2022-09-21T00:53:25.308Z,22.16
2022-09-21T00:55:56.204Z,22.15
2022-09-21T00:58:30.359Z,22.06
2022-09-21T01:00:59.720Z,22.01
2022-09-21T01:03:28.079Z,22.08
2022-09-21T01:05:56.611Z,22.09
2022-09-21T01:08:26.049Z,21.92
2022-09-21T01:11:30.602Z,21.80
2022-09-21T01:14:26.492Z,21.77
2022-09-21T01:17:04.988Z,21.86
2022-09-21T01:19:57.015Z,21.83
2022-09-21T01:22:49.671Z,21.82
2022-09-21T01:25:37.413Z,21.84
2022-09-21T01:28:20.829Z,21.59
2022-09-21T01:30:50.584Z,21.53
2022-09-21T01:33:24.698Z,21.55
2022-09-21T01:35:57.562Z,21.53
2022-09-21T01:38:33.698Z,21.41
2022-09-21T01:41:04.613Z,21.49
2022-09-21T01:43:38.936Z,21.35
2022-09-21T01:46:10.780Z,21.47
2022-09-21T01:48:41.945Z,21.51
2022-09-21T01:51:12.227Z,21.53
2022-09-21T01:53:51.616Z,21.57
2022-09-21T01:56:23.949Z,21.55
2022-09-21T01:59:01.143Z,21.41
2022-09-21T02:01:31.227Z,21.45
2022-09-21T02:04:03.894Z,21.16
2022-09-21T02:06:31.626Z,21.32
2022-09-21T02:08:58.152Z,21.34
2022-09-21T02:11:24.661Z,21.31
2022-09-21T02:13:55.034Z,21.08
2022-09-21T02:16:40.074Z,21.31
2022-09-21T02:19:22.529Z,21.34
2022-09-21T02:22:12.601Z,21.38
2022-09-21T02:24:43.159Z,21.31
2022-09-21T02:27:34.448Z,21.34
2022-09-21T02:30:09.097Z,21.35
2022-09-21T02:32:52.617Z,21.34
2022-09-21T02:35:38.654Z,21.29
2022-09-21T02:38:22.740Z,21.26
2022-09-21T02:40:56.672Z,21.17
2022-09-21T02:43:30.676Z,21.18
2022-09-21T02:46:06.313Z,21.23
2022-09-21T02:48:38.203Z,21.16
2022-09-21T02:51:11.196Z,21.07
2022-09-21T02:53:39.746Z,21.06
2022-09-21T02:56:09.111Z,21.04
2022-09-21T02:58:40.018Z,20.95
2022-09-21T03:01:10.210Z,20.92
2022-09-21T03:03:37.031Z,20.88
2022-09-21T03:06:03.750Z,20.87
2022-09-21T03:08:30.454Z,20.77
2022-09-21T03:10:57.734Z,20.86
2022-09-21T03:13:25.002Z,20.84
2022-09-21T03:15:59.855Z,20.85
2022-09-21T03:18:26.820Z,20.83
2022-09-21T03:20:53.348Z,20.87
2022-09-21T03:23:19.859Z,20.78
2022-09-21T03:25:47.217Z,20.82
2022-09-21T03:28:14.725Z,20.81
2022-09-21T03:30:42.129Z,20.72
2022-09-21T03:33:08.669Z,20.80
2022-09-21T03:35:35.268Z,20.63
2022-09-21T03:38:02.264Z,20.62
2022-09-21T03:40:29.168Z,20.74
2022-09-21T03:42:56.021Z,20.64
2022-09-21T03:45:22.885Z,20.60
2022-09-21T03:47:49.398Z,20.57
2022-09-21T03:50:16.114Z,20.56
2022-09-21T03:52:42.663Z,20.56
2022-09-21T03:55:09.506Z,20.48
2022-09-21T03:57:36.553Z,20.56
2022-09-21T04:00:07.171Z,20.59
2022-09-21T04:02:34.419Z,20.57
2022-09-21T04:05:01.020Z,20.51
2022-09-21T04:07:33.878Z,20.43
2022-09-21T04:10:01.198Z,20.51
2022-09-21T04:12:28.102Z,20.31
2022-09-21T04:14:54.651Z,20.39
2022-09-21T04:17:21.490Z,20.40
2022-09-21T04:19:48.583Z,20.42
2022-09-21T04:22:15.448Z,20.47
2022-09-21T04:24:41.948Z,20.39
2022-09-21T04:27:09.364Z,20.39
2022-09-21T04:29:36.644Z,20.43
2022-09-21T04:32:04.869Z,20.25
2022-09-21T04:34:31.640Z,20.27
2022-09-21T04:36:59.000Z,20.28
2022-09-21T04:39:26.219Z,20.24
2022-09-21T04:41:52.983Z,20.30
2022-09-21T04:44:19.502Z,20.23
2022-09-21T04:46:46.143Z,20.27
2022-09-21T04:49:12.895Z,20.26
2022-09-21T04:51:39.413Z,20.28
2022-09-21T04:54:06.631Z,20.28
2022-09-21T04:56:33.442Z,20.21
2022-09-21T04:58:59.935Z,20.25
2022-09-21T05:01:26.617Z,20.10
2022-09-21T05:03:53.167Z,20.19
2022-09-21T05:06:19.735Z,20.24
2022-09-21T05:09:04.953Z,20.26
2022-09-21T05:11:31.622Z,20.14
2022-09-21T05:13:58.174Z,20.26
2022-09-21T05:16:24.743Z,20.24
2022-09-21T05:18:54.857Z,20.30
2022-09-21T05:21:21.921Z,20.35
2022-09-21T05:23:48.519Z,20.35
2022-09-21T05:26:15.413Z,20.21
2022-09-21T05:28:42.930Z,20.30
2022-09-21T05:31:18.718Z,20.18
2022-09-21T05:33:52.861Z,20.35
2022-09-21T05:36:48.437Z,20.47
2022-09-21T05:39:15.498Z,20.63
2022-09-21T05:41:42.555Z,21.22
2022-09-21T05:44:13.847Z,22.07
2022-09-21T05:46:56.050Z,22.90
2022-09-21T05:49:35.630Z,24.47
2022-09-21T05:52:34.667Z,26.10
2022-09-21T05:55:19.511Z,27.33
2022-09-21T05:57:54.159Z,28.22
2022-09-21T06:00:22.809Z,28.95
2022-09-21T06:03:02.780Z,29.75
2022-09-21T06:05:29.296Z,30.47
2022-09-21T06:07:55.856Z,30.79
2022-09-21T06:10:24.169Z,31.27
2022-09-21T06:12:51.315Z,31.90
2022-09-21T06:15:18.118Z,32.80
2022-09-21T06:17:44.614Z,33.66
2022-09-21T06:20:11.202Z,33.93
2022-09-21T06:22:37.746Z,34.90
2022-09-21T06:25:04.554Z,35.55
2022-09-21T06:27:31.042Z,36.26
2022-09-21T06:29:57.663Z,36.77
2022-09-21T06:32:24.229Z,37.43
2022-09-21T06:34:51.034Z,36.82
2022-09-21T06:37:17.609Z,37.74
2022-09-21T06:39:44.212Z,38.38
2022-09-21T06:42:10.719Z,40.21
2022-09-21T06:44:37.232Z,39.24
2022-09-21T06:47:03.909Z,39.81
2022-09-21T06:49:30.412Z,40.78
2022-09-21T06:51:56.927Z,40.57
2022-09-21T06:54:24.541Z,40.44
2022-09-21T06:56:51.052Z,40.40
2022-09-21T06:59:17.729Z,40.51
2022-09-21T07:01:44.358Z,41.24
2022-09-21T07:04:11.426Z,41.69
2022-09-21T07:06:37.931Z,42.75
2022-09-21T07:11:51.262Z,42.90
2022-09-21T07:14:18.553Z,43.13
2022-09-21T07:16:46.206Z,43.50
2022-09-21T07:19:12.806Z,43.01
2022-09-21T07:21:39.930Z,44.06
2022-09-21T07:24:11.730Z,44.33
2022-09-21T07:26:40.019Z,45.42
2022-09-21T07:29:06.874Z,45.83
2022-09-21T07:31:33.553Z,45.97
2022-09-21T07:34:00.921Z,46.02
2022-09-21T07:36:27.446Z,46.12
2022-09-21T07:38:54.155Z,46.71
2022-09-21T07:41:20.950Z,46.70
2022-09-21T07:43:47.506Z,47.15
2022-09-21T07:46:14.975Z,47.21
2022-09-21T07:48:42.076Z,46.88
2022-09-21T07:51:11.290Z,46.69
2022-09-21T07:53:39.570Z,46.56
2022-09-21T07:56:12.463Z,47.29
2022-09-21T07:58:58.539Z,46.76
2022-09-21T08:01:26.512Z,47.21
2022-09-21T08:03:55.231Z,47.03
2022-09-21T08:06:23.906Z,47.26
2022-09-21T08:08:56.582Z,47.71
2022-09-21T08:11:25.875Z,48.30
2022-09-21T08:13:54.348Z,48.05
2022-09-21T08:16:21.325Z,48.27
2022-09-21T08:18:47.852Z,47.89
2022-09-21T08:21:14.411Z,48.43
2022-09-21T08:23:42.945Z,48.62
2022-09-21T08:26:20.515Z,48.12
2022-09-21T08:28:49.196Z,48.13
2022-09-21T08:31:19.309Z,48.11
2022-09-21T08:33:46.955Z,48.37
2022-09-21T08:36:13.788Z,48.59
2022-09-21T08:38:40.345Z,48.58
2022-09-21T08:41:23.051Z,48.46
2022-09-21T08:43:54.490Z,48.29
2022-09-21T08:46:25.505Z,48.39
2022-09-21T08:49:01.822Z,47.73
2022-09-21T08:51:36.056Z,47.94
2022-09-21T08:54:23.226Z,47.61
2022-09-21T08:57:04.529Z,47.77
2022-09-21T08:59:31.793Z,47.47
2022-09-21T09:02:30.944Z,47.76
2022-09-21T09:05:12.574Z,47.79
2022-09-21T09:08:02.947Z,47.19
2022-09-21T09:10:53.759Z,46.56
2022-09-21T09:13:32.458Z,46.36
2022-09-21T09:16:31.266Z,46.53
2022-09-21T09:19:04.337Z,45.83
2022-09-21T09:21:43.444Z,45.41
2022-09-21T09:24:43.318Z,45.11
2022-09-21T09:27:18.932Z,45.20
2022-09-21T09:30:16.978Z,44.86
2022-09-21T09:33:02.383Z,44.00
2022-09-21T09:35:34.020Z,43.93
2022-09-21T09:38:19.200Z,43.69
2022-09-21T09:41:24.573Z,42.95
2022-09-21T09:44:20.755Z,41.99
2022-09-21T09:47:21.170Z,40.79
2022-09-21T09:50:23.678Z,40.29
2022-09-21T09:52:54.840Z,40.47
2022-09-21T09:55:25.940Z,39.26
2022-09-21T09:57:54.931Z,38.28
2022-09-21T10:00:22.319Z,38.63
2022-09-21T10:02:52.242Z,39.22
2022-09-21T10:05:38.856Z,38.36
2022-09-21T10:08:05.380Z,38.20
2022-09-21T10:10:37.645Z,37.47
2022-09-21T10:13:22.078Z,37.85
2022-09-21T10:15:51.417Z,37.61
2022-09-21T10:18:25.431Z,38.01
2022-09-21T10:21:01.804Z,37.68
2022-09-21T10:23:30.846Z,37.38
2022-09-21T10:26:04.171Z,37.05
2022-09-21T10:28:31.115Z,36.70
2022-09-21T10:31:23.571Z,36.44
2022-09-21T10:33:51.933Z,36.07
2022-09-21T10:36:27.960Z,36.28
2022-09-21T10:38:54.518Z,35.80
2022-09-21T10:41:21.438Z,35.11
2022-09-21T10:43:50.656Z,35.65
2022-09-21T10:46:17.979Z,36.11
2022-09-21T10:48:46.728Z,35.94
2022-09-21T10:51:30.353Z,35.19
2022-09-21T10:53:57.470Z,35.23
2022-09-21T10:56:24.938Z,35.90
2022-09-21T10:59:12.554Z,36.29
2022-09-21T11:01:50.864Z,36.70
2022-09-21T11:04:42.130Z,36.80
2022-09-21T11:07:34.088Z,37.16
2022-09-21T11:10:00.523Z,37.19
2022-09-21T11:12:26.967Z,36.95
2022-09-21T11:15:02.293Z,36.30
2022-09-21T11:17:42.065Z,36.23
2022-09-21T11:20:20.730Z,36.14
2022-09-21T11:22:57.686Z,36.91
2022-09-21T11:25:58.658Z,36.98
2022-09-21T11:28:42.059Z,36.80
2022-09-21T11:31:34.543Z,37.36
2022-09-21T11:34:25.964Z,36.96
2022-09-21T11:37:20.043Z,36.50
2022-09-21T11:40:12.870Z,36.93
2022-09-21T11:42:45.620Z,37.26
2022-09-21T11:45:33.811Z,36.96
2022-09-21T11:48:25.670Z,37.13
2022-09-21T11:51:15.467Z,37.88
2022-09-21T11:53:54.084Z,38.11
2022-09-21T11:56:31.057Z,37.46
2022-09-21T11:59:19.567Z,36.86
2022-09-21T12:02:05.226Z,36.60
2022-09-21T12:04:42.872Z,36.82
2022-09-21T12:07:20.468Z,36.49
2022-09-21T12:10:16.837Z,36.60
2022-09-21T12:12:59.763Z,35.36
2022-09-21T12:15:51.716Z,35.44
2022-09-21T12:18:27.242Z,35.83
2022-09-21T12:21:01.070Z,36.03
2022-09-21T12:23:45.106Z,36.26
2022-09-21T12:26:23.039Z,36.57
2022-09-21T12:28:54.976Z,36.73
2022-09-21T12:31:43.824Z,36.33
2022-09-21T12:34:18.782Z,35.62
2022-09-21T12:37:04.368Z,34.60
2022-09-21T12:39:51.443Z,34.86
2022-09-21T12:42:40.629Z,36.06
2022-09-21T12:45:22.819Z,35.96
2022-09-21T12:47:58.024Z,35.83
2022-09-21T12:50:48.466Z,36.38
2022-09-21T12:53:20.977Z,35.48
2022-09-21T12:56:09.948Z,36.22
2022-09-21T12:59:12.159Z,36.77
2022-09-21T13:01:57.086Z,37.12
2022-09-21T13:04:46.131Z,37.42
2022-09-21T13:07:51.569Z,37.33
2022-09-21T13:10:39.851Z,37.36
2022-09-21T13:13:18.783Z,37.06
2022-09-21T13:15:48.304Z,37.09
2022-09-21T13:18:31.401Z,36.38
2022-09-21T13:21:22.088Z,36.70
2022-09-21T13:23:56.762Z,36.96
2022-09-21T13:26:33.063Z,36.92
2022-09-21T13:29:21.670Z,37.24
2022-09-21T13:32:00.735Z,37.56
2022-09-21T13:34:32.882Z,37.36
2022-09-21T13:37:11.732Z,37.00
2022-09-21T13:39:50.175Z,37.29
2022-09-21T13:42:34.794Z,37.20
2022-09-21T13:45:24.176Z,37.26
2022-09-21T13:47:54.599Z,36.91
2022-09-21T13:50:32.391Z,36.94
2022-09-21T13:53:09.761Z,36.71
2022-09-21T13:55:40.842Z,37.14
2022-09-21T13:58:24.745Z,36.87
2022-09-21T14:01:00.103Z,36.72
2022-09-21T14:03:40.770Z,36.90
2022-09-21T14:06:15.799Z,36.99
2022-09-21T14:08:51.598Z,36.96
2022-09-21T14:11:59.079Z,37.01
2022-09-21T14:14:33.165Z,36.11
2022-09-21T14:17:01.375Z,36.00
2022-09-21T14:19:31.987Z,35.56
2022-09-21T14:22:04.689Z,34.89
2022-09-21T14:24:49.812Z,35.60
2022-09-21T14:27:26.812Z,34.59
2022-09-21T14:29:59.347Z,34.72
2022-09-21T14:32:35.390Z,34.90
2022-09-21T14:35:11.258Z,35.07
2022-09-21T14:37:43.076Z,35.65
2022-09-21T14:40:31.427Z,35.55
2022-09-21T14:43:01.998Z,35.85
2022-09-21T14:46:03.151Z,35.55
2022-09-21T14:49:01.979Z,36.03
2022-09-21T14:52:23.509Z,36.26
2022-09-21T14:55:11.793Z,35.74
2022-09-21T14:58:15.027Z,35.49
2022-09-21T15:00:44.366Z,34.82
2022-09-21T15:03:32.761Z,34.38
2022-09-21T15:06:34.116Z,33.90
2022-09-21T15:09:41.589Z,34.88
2022-09-21T15:12:17.009Z,35.19
2022-09-21T15:15:15.339Z,34.55
2022-09-21T15:17:59.183Z,34.10
2022-09-21T15:20:28.455Z,34.49
2022-09-21T15:22:57.044Z,35.06
2022-09-21T15:25:26.711Z,34.72
2022-09-21T15:27:54.839Z,34.67
2022-09-21T15:30:24.687Z,34.46
2022-09-21T15:32:55.166Z,34.72
2022-09-21T15:35:27.897Z,34.52
2022-09-21T15:37:56.427Z,34.13
2022-09-21T15:40:30.936Z,34.34
2022-09-21T15:43:19.531Z,34.51
2022-09-21T15:46:03.786Z,34.59
2022-09-21T15:48:34.184Z,34.75
2022-09-21T15:51:13.004Z,34.47
2022-09-21T15:53:45.489Z,33.28
2022-09-21T15:56:22.110Z,33.37
2022-09-21T15:58:53.204Z,33.78
2022-09-21T16:01:23.287Z,33.88
2022-09-21T16:04:03.072Z,33.92
2022-09-21T16:06:41.603Z,33.48
2022-09-21T16:09:31.511Z,33.59
2022-09-21T16:11:58.044Z,33.64
2022-09-21T16:14:43.479Z,33.47
2022-09-21T16:17:11.398Z,33.68
2022-09-21T16:19:42.935Z,33.75
2022-09-21T16:22:14.299Z,33.77
2022-09-21T16:24:50.508Z,33.61
2022-09-21T16:27:19.468Z,33.37
2022-09-21T16:29:48.451Z,33.55
2022-09-21T16:32:18.162Z,32.65
2022-09-21T16:34:46.902Z,32.66
2022-09-21T16:37:25.664Z,32.20
2022-09-21T16:39:54.214Z,32.43
2022-09-21T16:42:22.732Z,32.34
2022-09-21T16:44:50.426Z,32.38
2022-09-21T16:47:25.589Z,32.74
2022-09-21T16:50:02.511Z,32.86
2022-09-21T16:52:30.518Z,32.42
2022-09-21T16:54:58.626Z,32.04
2022-09-21T16:57:26.035Z,31.86
2022-09-21T16:59:53.348Z,31.85
2022-09-21T17:02:19.951Z,31.38
2022-09-21T17:04:48.329Z,31.25
2022-09-21T17:07:16.679Z,30.98
2022-09-21T17:09:48.035Z,30.83
2022-09-21T17:12:17.677Z,30.76
2022-09-21T17:14:46.949Z,30.77
2022-09-21T17:17:19.170Z,30.65
2022-09-21T17:19:49.837Z,30.73
2022-09-21T17:22:17.232Z,30.34
2022-09-21T17:24:52.121Z,30.09
2022-09-21T17:27:25.251Z,29.74
2022-09-21T17:29:54.170Z,29.62
2022-09-21T17:32:23.001Z,29.51
2022-09-21T17:35:01.550Z,29.66
2022-09-21T17:37:29.392Z,29.45
2022-09-21T17:39:56.123Z,29.38
2022-09-21T17:42:24.926Z,29.22
2022-09-21T17:45:01.556Z,29.11
2022-09-21T17:47:31.263Z,28.78
2022-09-21T17:50:08.251Z,28.45
2022-09-21T17:52:54.213Z,28.76
2022-09-21T17:55:21.118Z,29.02
2022-09-21T17:58:05.768Z,28.88
2022-09-21T18:00:44.079Z,29.10
2022-09-21T18:03:32.149Z,28.91
2022-09-21T18:06:01.770Z,29.06
2022-09-21T18:08:29.963Z,28.86
2022-09-21T18:10:59.420Z,28.54
2022-09-21T18:13:34.757Z,28.68
2022-09-21T18:16:10.503Z,28.42
2022-09-21T18:18:46.770Z,28.21
2022-09-21T18:21:22.656Z,27.74
2022-09-21T18:24:13.523Z,27.08
2022-09-21T18:26:41.529Z,27.65
2022-09-21T18:29:40.644Z,27.33
2022-09-21T18:32:28.636Z,27.41
2022-09-21T18:35:23.600Z,27.25
2022-09-21T18:38:04.419Z,27.22
2022-09-21T18:40:52.785Z,27.27
2022-09-21T18:43:43.617Z,27.17
2022-09-21T18:46:29.126Z,27.02
2022-09-21T18:48:59.067Z,27.15
2022-09-21T18:51:45.490Z,27.11
2022-09-21T18:54:19.983Z,27.08
2022-09-21T18:56:47.503Z,26.97
2022-09-21T18:59:15.595Z,26.52
2022-09-21T19:01:44.187Z,26.44
2022-09-21T19:04:13.834Z,26.23
2022-09-21T19:07:08.514Z,26.03
2022-09-21T19:09:57.766Z,26.11
2022-09-21T19:12:49.555Z,25.94
2022-09-21T19:15:59.638Z,26.05
2022-09-21T19:18:46.804Z,26.36
2022-09-21T19:21:45.814Z,25.89
2022-09-21T19:24:26.773Z,25.81
2022-09-21T19:27:25.021Z,25.01
2022-09-21T19:30:05.911Z,25.50
2022-09-21T19:32:47.493Z,25.65
2022-09-21T19:35:22.008Z,25.79
2022-09-21T19:37:50.208Z,25.33
2022-09-21T19:40:19.048Z,25.64
2022-09-21T19:43:16.483Z,25.54
2022-09-21T19:46:05.177Z,25.52
2022-09-21T19:48:45.048Z,25.51
2022-09-21T19:51:27.665Z,25.12
2022-09-21T19:54:15.194Z,25.53
2022-09-21T19:57:05.774Z,25.19
2022-09-21T19:59:44.702Z,25.03
2022-09-21T20:02:19.748Z,25.13
2022-09-21T20:04:56.819Z,25.17
2022-09-21T20:07:28.677Z,25.29
2022-09-21T20:10:08.347Z,25.26
2022-09-21T20:12:43.122Z,25.28
2022-09-21T20:15:21.652Z,25.42
2022-09-21T20:17:57.654Z,24.98
2022-09-21T20:20:26.674Z,24.63
2022-09-21T20:22:54.395Z,24.69
2022-09-21T20:25:23.936Z,24.58
2022-09-21T20:27:53.309Z,24.97
2022-09-21T20:30:22.633Z,24.85
2022-09-21T20:32:53.131Z,25.12
2022-09-21T20:35:25.312Z,24.73
2022-09-21T20:37:52.469Z,24.77
2022-09-21T20:40:20.404Z,24.52
2022-09-21T20:42:47.027Z,24.50
2022-09-21T20:45:13.961Z,24.18
2022-09-21T20:47:42.106Z,23.78
2022-09-21T20:50:13.430Z,23.64
2022-09-21T20:52:42.775Z,23.59
2022-09-21T20:55:12.535Z,23.87
2022-09-21T20:57:40.410Z,24.00
2022-09-21T21:00:09.729Z,24.04
2022-09-21T21:02:37.290Z,23.89
2022-09-21T21:05:05.479Z,23.93
2022-09-21T21:07:32.415Z,23.96
2022-09-21T21:09:58.894Z,23.53
2022-09-21T21:12:26.208Z,23.55
2022-09-21T21:14:52.966Z,23.03
2022-09-21T21:17:19.488Z,23.00
2022-09-21T21:19:46.037Z,22.75
2022-09-21T21:22:13.791Z,23.33
2022-09-21T21:24:40.802Z,23.41
2022-09-21T21:27:16.159Z,23.51
2022-09-21T21:29:49.919Z,23.19
2022-09-21T21:32:19.497Z,23.37
2022-09-21T21:34:46.395Z,23.48
2022-09-21T21:40:03.291Z,23.63
2022-09-21T21:42:29.950Z,23.71
2022-09-21T21:44:56.940Z,23.74
2022-09-21T21:47:40.524Z,23.66
2022-09-21T21:50:10.795Z,23.59
2022-09-21T21:52:37.969Z,23.63
2022-09-21T21:55:05.509Z,23.53
2022-09-21T21:57:33.121Z,23.52
2022-09-21T21:59:59.908Z,23.63
2022-09-21T22:02:26.945Z,23.56
2022-09-21T22:04:53.741Z,23.42
2022-09-21T22:07:20.227Z,23.40
2022-09-21T22:09:46.726Z,23.48
2022-09-21T22:12:13.528Z,23.44
2022-09-21T22:14:40.168Z,23.47
2022-09-21T22:17:06.690Z,23.28
2022-09-21T22:19:55.724Z,22.97
2022-09-21T22:22:22.278Z,22.95
2022-09-21T22:24:49.044Z,22.95
2022-09-21T22:27:16.402Z,22.82
2022-09-21T22:29:43.139Z,22.71
2022-09-21T22:32:09.626Z,22.85
2022-09-21T22:34:37.140Z,22.96
2022-09-21T22:37:04.990Z,22.92
2022-09-21T22:39:32.174Z,23.01
2022-09-21T22:42:00.369Z,22.93
2022-09-21T22:44:26.854Z,22.85
2022-09-21T22:46:53.611Z,22.56
2022-09-21T22:49:20.155Z,22.34
2022-09-21T22:51:46.671Z,22.53
2022-09-21T22:54:13.178Z,22.35
2022-09-21T22:56:39.862Z,22.12
2022-09-21T22:59:06.405Z,21.97
2022-09-21T23:01:38.638Z,22.37
2022-09-21T23:04:08.204Z,22.57
2022-09-21T23:06:38.105Z,22.42
2022-09-21T23:09:08.167Z,22.30
2022-09-21T23:11:38.525Z,22.31
2022-09-21T23:14:05.843Z,22.34
2022-09-21T23:16:33.278Z,22.17
2022-09-21T23:19:00.090Z,22.40
2022-09-21T23:21:28.709Z,22.41
2022-09-21T23:24:01.774Z,22.41
2022-09-21T23:26:30.500Z,22.33
2022-09-21T23:29:02.215Z,22.21
2022-09-21T23:31:31.338Z,22.18
2022-09-21T23:34:12.427Z,22.18
2022-09-21T23:36:40.302Z,21.96
2022-09-21T23:39:09.507Z,22.06
2022-09-21T23:41:36.841Z,21.86
2022-09-21T23:44:04.519Z,21.87
2022-09-21T23:46:33.573Z,21.82
2022-09-21T23:49:00.961Z,21.91
2022-09-21T23:51:29.802Z,21.77
2022-09-21T23:53:57.459Z,21.86
2022-09-21T23:56:24.603Z,21.83
2022-09-21T23:58:51.986Z,21.85
